createdAt,value
2017-09-20T00:00:20.068Z,5.70
2017-09-20T00:02:47.710Z,5.60
2017-09-20T00:05:15.324Z,5.60
2017-09-20T00:07:42.932Z,5.60
2017-09-20T00:10:10.584Z,5.50
2017-09-20T00:12:38.178Z,5.50
2017-09-20T00:15:05.808Z,5.50
2017-09-20T00:17:33.445Z,5.50
2017-09-20T00:20:01.088Z,5.50
2017-09-20T00:22:28.715Z,5.50
2017-09-20T00:24:56.340Z,5.50
2017-09-20T00:27:24.031Z,5.60
2017-09-20T00:29:51.686Z,5.60
2017-09-20T00:32:19.403Z,5.60
2017-09-20T00:34:47.110Z,5.70
2017-09-20T00:37:14.750Z,5.70
2017-09-20T00:39:42.344Z,5.70
2017-09-20T00:42:09.991Z,5.70
2017-09-20T00:44:37.655Z,5.70
2017-09-20T00:47:05.249Z,5.70
2017-09-20T00:49:32.909Z,5.60
2017-09-20T00:52:00.559Z,5.70
2017-09-20T00:54:29.002Z,5.80
2017-09-20T00:56:56.675Z,5.70
2017-09-20T00:59:24.350Z,6.00
2017-09-20T01:01:52.054Z,6.10
2017-09-20T01:04:19.736Z,6.20
2017-09-20T01:06:47.372Z,6.30
2017-09-20T01:09:15.122Z,6.40
2017-09-20T01:11:42.746Z,6.40
2017-09-20T01:14:10.396Z,6.40
2017-09-20T01:16:38.044Z,6.50
2017-09-20T01:19:05.765Z,6.50
2017-09-20T01:21:56.992Z,6.50
2017-09-20T01:24:24.662Z,6.60
2017-09-20T01:26:52.876Z,6.60
2017-09-20T01:29:20.528Z,6.50
2017-09-20T01:31:48.165Z,6.60
2017-09-20T01:34:15.823Z,6.60
2017-09-20T01:36:43.469Z,6.60
2017-09-20T01:39:11.225Z,6.60
2017-09-20T01:41:38.878Z,6.60
2017-09-20T01:44:07.333Z,6.50
2017-09-20T01:46:34.976Z,6.50
2017-09-20T01:49:02.723Z,6.40
2017-09-20T01:51:30.337Z,6.30
2017-09-20T01:53:57.975Z,6.30
2017-09-20T01:56:25.605Z,6.30
2017-09-20T01:58:53.266Z,6.40
2017-09-20T02:01:20.934Z,6.40
2017-09-20T02:03:48.583Z,6.40
2017-09-20T02:06:16.252Z,6.40
2017-09-20T02:08:43.963Z,6.40
2017-09-20T02:11:11.646Z,6.40
2017-09-20T02:13:39.355Z,6.40
2017-09-20T02:16:07.008Z,6.50
2017-09-20T02:18:34.634Z,6.50
2017-09-20T02:21:02.286Z,6.50
2017-09-20T02:23:29.931Z,6.50
2017-09-20T02:25:57.489Z,6.60
2017-09-20T02:28:25.103Z,6.70
2017-09-20T02:30:52.863Z,6.70
2017-09-20T02:33:20.464Z,6.70
2017-09-20T02:35:48.977Z,6.80
2017-09-20T02:38:16.709Z,6.80
2017-09-20T02:40:44.418Z,6.90
2017-09-20T02:43:12.276Z,6.90
2017-09-20T02:45:40.093Z,6.90
2017-09-20T02:48:07.840Z,7.00
2017-09-20T02:50:35.518Z,7.00
2017-09-20T02:53:03.188Z,7.00
2017-09-20T02:55:31.173Z,7.10
2017-09-20T02:57:58.834Z,7.20
2017-09-20T03:00:26.536Z,7.30
2017-09-20T03:02:54.286Z,7.40
2017-09-20T03:05:21.960Z,7.50
2017-09-20T03:07:49.641Z,7.50
2017-09-20T03:10:17.302Z,7.50
2017-09-20T03:12:45.683Z,7.60
2017-09-20T03:15:13.388Z,7.60
2017-09-20T03:17:41.059Z,7.70
2017-09-20T03:20:08.746Z,7.80
2017-09-20T03:22:36.484Z,7.80
2017-09-20T03:25:04.179Z,7.90
2017-09-20T03:27:31.855Z,7.90
2017-09-20T03:29:59.648Z,7.90
2017-09-20T03:32:27.300Z,7.90
2017-09-20T03:34:55.012Z,8.00
2017-09-20T03:37:22.696Z,7.90
2017-09-20T03:39:50.377Z,8.00
2017-09-20T03:42:18.074Z,7.90
2017-09-20T03:44:46.478Z,8.00
2017-09-20T03:47:14.114Z,7.90
2017-09-20T03:49:41.731Z,8.00
2017-09-20T03:52:09.410Z,8.10
2017-09-20T03:54:37.027Z,8.00
2017-09-20T03:57:04.673Z,8.00
2017-09-20T03:59:32.371Z,8.00
2017-09-20T04:02:00.019Z,8.00
2017-09-20T04:04:27.610Z,8.00
2017-09-20T04:06:55.262Z,8.00
2017-09-20T04:09:22.863Z,8.00
2017-09-20T04:11:50.510Z,8.00
2017-09-20T04:14:18.147Z,7.90
2017-09-20T04:16:45.753Z,7.90
2017-09-20T04:19:13.396Z,7.90
2017-09-20T04:21:41.042Z,7.90
2017-09-20T04:24:08.663Z,7.90
2017-09-20T04:26:36.334Z,7.90
2017-09-20T04:29:03.993Z,8.00
2017-09-20T04:31:31.624Z,8.00
2017-09-20T04:33:59.326Z,8.00
2017-09-20T04:36:27.691Z,8.00
2017-09-20T04:38:55.305Z,8.00
2017-09-20T04:41:22.944Z,8.00
2017-09-20T04:43:50.645Z,8.00
2017-09-20T04:46:18.274Z,8.00
2017-09-20T04:48:45.945Z,7.90
2017-09-20T04:51:13.714Z,7.90
2017-09-20T04:53:41.420Z,7.90
2017-09-20T04:56:09.058Z,7.90
2017-09-20T04:58:36.739Z,7.80
2017-09-20T05:01:04.445Z,7.90
2017-09-20T05:03:32.658Z,7.90
2017-09-20T05:06:00.406Z,7.90
2017-09-20T05:08:28.080Z,7.90
2017-09-20T05:10:55.784Z,7.80
2017-09-20T05:13:23.488Z,7.80
2017-09-20T05:15:51.939Z,7.80
2017-09-20T05:18:19.551Z,7.80
2017-09-20T05:20:47.243Z,7.80
2017-09-20T05:23:15.004Z,7.70
2017-09-20T05:25:42.696Z,7.70
2017-09-20T05:28:10.433Z,7.60
2017-09-20T05:30:38.186Z,7.60
2017-09-20T05:33:06.827Z,7.60
2017-09-20T05:35:34.560Z,7.50
2017-09-20T05:38:02.341Z,7.50
2017-09-20T05:40:31.283Z,7.50
2017-09-20T05:42:59.018Z,7.50
2017-09-20T05:45:26.671Z,7.60
2017-09-20T05:47:55.504Z,7.60
2017-09-20T05:50:23.246Z,7.70
2017-09-20T05:52:50.895Z,7.90
2017-09-20T05:55:18.570Z,8.10
2017-09-20T05:57:46.224Z,8.30
2017-09-20T06:00:13.899Z,8.60
2017-09-20T06:02:41.535Z,9.00
2017-09-20T06:05:09.173Z,9.90
2017-09-20T06:07:36.824Z,10.90
2017-09-20T06:10:04.527Z,11.80
2017-09-20T06:12:32.215Z,12.30
2017-09-20T06:14:59.824Z,12.80
2017-09-20T06:17:27.460Z,13.30
2017-09-20T06:19:55.090Z,13.70
2017-09-20T06:22:22.724Z,13.70
2017-09-20T06:24:50.388Z,13.80
2017-09-20T06:27:17.993Z,13.40
2017-09-20T06:29:45.622Z,12.80
2017-09-20T06:32:13.271Z,12.40
2017-09-20T06:34:40.906Z,11.80
2017-09-20T06:37:08.603Z,11.20
2017-09-20T06:39:36.234Z,10.90
2017-09-20T06:42:03.861Z,10.80
2017-09-20T06:44:31.564Z,10.80
2017-09-20T06:47:00.035Z,10.70
2017-09-20T06:49:28.644Z,10.60
2017-09-20T06:51:56.303Z,10.50
2017-09-20T06:54:23.910Z,10.40
2017-09-20T06:56:51.554Z,10.50
2017-09-20T06:59:19.190Z,10.60
2017-09-20T07:01:46.826Z,10.70
2017-09-20T07:04:14.496Z,10.70
2017-09-20T07:06:42.202Z,10.80
2017-09-20T07:09:10.020Z,10.70
2017-09-20T07:11:37.659Z,10.80
2017-09-20T07:14:05.412Z,10.70
2017-09-20T07:16:33.042Z,10.70
2017-09-20T07:19:00.683Z,10.90
2017-09-20T07:21:28.372Z,11.30
2017-09-20T07:23:56.055Z,11.40
2017-09-20T07:26:23.653Z,11.40
2017-09-20T07:28:51.326Z,11.30
2017-09-20T07:31:18.996Z,12.00
2017-09-20T07:33:46.633Z,12.20
2017-09-20T07:36:14.251Z,12.30
2017-09-20T07:38:41.918Z,12.30
2017-09-20T07:41:09.542Z,12.50
2017-09-20T07:43:37.210Z,13.10
2017-09-20T07:46:04.824Z,13.30
2017-09-20T07:48:32.447Z,13.40
2017-09-20T07:51:00.124Z,13.50
2017-09-20T07:53:27.684Z,13.90
2017-09-20T07:55:55.303Z,14.40
2017-09-20T07:58:22.930Z,15.10
2017-09-20T08:00:51.336Z,15.70
2017-09-20T08:03:18.962Z,15.70
2017-09-20T08:05:46.598Z,15.30
2017-09-20T08:08:14.185Z,15.20
2017-09-20T08:10:41.818Z,15.40
2017-09-20T08:13:09.490Z,16.10
2017-09-20T08:15:37.075Z,16.60
2017-09-20T08:18:04.692Z,16.60
2017-09-20T08:20:32.316Z,16.70
2017-09-20T08:22:59.948Z,16.90
2017-09-20T08:25:27.542Z,16.00
2017-09-20T08:27:55.176Z,15.30
2017-09-20T08:30:22.795Z,14.70
2017-09-20T08:32:50.460Z,14.40
2017-09-20T08:35:18.061Z,14.40
2017-09-20T08:37:45.712Z,14.50
2017-09-20T08:40:13.374Z,14.70
2017-09-20T08:42:41.017Z,14.80
2017-09-20T08:45:08.607Z,14.80
2017-09-20T08:47:36.238Z,15.00
2017-09-20T08:50:03.954Z,15.50
2017-09-20T08:52:31.662Z,16.00
2017-09-20T08:54:59.319Z,16.20
2017-09-20T08:57:26.959Z,15.90
2017-09-20T08:59:54.557Z,15.60
2017-09-20T09:02:22.183Z,15.30
2017-09-20T09:04:49.810Z,15.10
2017-09-20T09:07:18.193Z,16.40
2017-09-20T09:09:46.606Z,16.30
2017-09-20T09:12:14.236Z,16.30
2017-09-20T09:14:41.890Z,16.80
2017-09-20T09:17:09.657Z,18.00
2017-09-20T09:19:37.290Z,18.60
2017-09-20T09:22:04.903Z,18.20
2017-09-20T09:24:32.533Z,17.30
2017-09-20T09:27:00.155Z,16.50
2017-09-20T09:29:27.798Z,15.90
2017-09-20T09:31:55.423Z,15.30
2017-09-20T09:34:23.839Z,15.80
2017-09-20T09:36:51.472Z,15.80
2017-09-20T09:39:19.108Z,16.20
2017-09-20T09:41:46.755Z,16.40
2017-09-20T09:44:14.396Z,16.30
2017-09-20T09:46:42.056Z,16.50
2017-09-20T09:49:09.725Z,16.30
2017-09-20T09:51:37.316Z,16.20
2017-09-20T09:54:04.959Z,16.30
2017-09-20T09:56:32.617Z,16.20
2017-09-20T09:59:00.248Z,17.60
2017-09-20T10:01:27.835Z,18.70
2017-09-20T10:03:55.482Z,18.90
2017-09-20T10:06:23.206Z,19.30
2017-09-20T10:08:52.973Z,19.60
2017-09-20T10:11:20.653Z,20.60
2017-09-20T10:13:48.335Z,21.10
2017-09-20T10:16:16.096Z,20.80
2017-09-20T10:18:43.796Z,21.10
2017-09-20T10:21:11.477Z,21.70
2017-09-20T10:23:39.230Z,22.60
2017-09-20T10:26:06.903Z,23.50
2017-09-20T10:28:34.529Z,23.70
2017-09-20T10:31:02.143Z,23.00
2017-09-20T10:33:31.803Z,21.90
2017-09-20T10:36:00.180Z,20.60
2017-09-20T10:38:28.619Z,21.40
2017-09-20T10:40:56.311Z,21.40
2017-09-20T10:43:23.991Z,22.40
2017-09-20T10:45:51.800Z,23.40
2017-09-20T10:48:19.536Z,24.30
2017-09-20T10:50:47.196Z,23.80
2017-09-20T10:53:14.989Z,24.40
2017-09-20T10:55:42.704Z,24.40
2017-09-20T10:58:10.406Z,25.00
2017-09-20T11:00:38.157Z,24.40
2017-09-20T11:03:05.853Z,22.60
2017-09-20T11:05:33.514Z,20.90
2017-09-20T11:08:01.198Z,19.90
2017-09-20T11:10:28.854Z,19.50
2017-09-20T11:12:57.299Z,19.30
2017-09-20T11:15:25.002Z,19.30
2017-09-20T11:17:52.771Z,18.60
2017-09-20T11:20:20.448Z,18.30
2017-09-20T11:22:48.891Z,17.60
2017-09-20T11:25:16.679Z,17.50
2017-09-20T11:27:44.341Z,17.10
2017-09-20T11:30:12.017Z,17.30
2017-09-20T11:32:39.942Z,19.00
2017-09-20T11:35:07.620Z,20.70
2017-09-20T11:37:35.269Z,21.80
2017-09-20T11:40:02.909Z,21.40
2017-09-20T11:42:30.541Z,20.20
2017-09-20T11:44:58.161Z,18.70
2017-09-20T11:47:25.891Z,17.60
2017-09-20T11:49:53.554Z,16.90
2017-09-20T11:52:21.227Z,16.30
2017-09-20T11:54:48.856Z,15.80
2017-09-20T11:57:16.521Z,15.60
2017-09-20T11:59:44.168Z,15.40
2017-09-20T12:02:12.606Z,15.40
2017-09-20T12:04:40.360Z,15.40
2017-09-20T12:07:08.014Z,15.70
2017-09-20T12:09:35.634Z,16.10
2017-09-20T12:12:03.308Z,16.70
2017-09-20T12:14:31.710Z,17.90
2017-09-20T12:16:59.444Z,17.80
2017-09-20T12:19:27.799Z,18.20
2017-09-20T12:21:55.423Z,18.20
2017-09-20T12:24:23.171Z,18.30
2017-09-20T12:26:50.810Z,18.10
2017-09-20T12:29:18.542Z,18.00
2017-09-20T12:31:46.238Z,17.80
2017-09-20T12:34:13.906Z,17.80
2017-09-20T12:36:41.635Z,17.80
2017-09-20T12:39:09.281Z,17.80
2017-09-20T12:41:36.963Z,17.70
2017-09-20T12:44:04.560Z,17.70
2017-09-20T12:46:32.371Z,17.60
2017-09-20T12:49:00.042Z,17.60
2017-09-20T12:51:27.683Z,17.70
2017-09-20T12:53:55.517Z,17.80
2017-09-20T12:56:23.416Z,17.90
2017-09-20T12:58:51.054Z,17.90
2017-09-20T13:01:18.718Z,18.10
2017-09-20T13:03:46.431Z,18.00
2017-09-20T13:06:14.065Z,17.60
2017-09-20T13:08:41.744Z,17.10
2017-09-20T13:11:09.462Z,16.80
2017-09-20T13:13:37.124Z,16.20
2017-09-20T13:16:05.582Z,15.70
2017-09-20T13:18:33.341Z,15.70
2017-09-20T13:21:01.882Z,15.60
2017-09-20T13:23:30.361Z,15.60
2017-09-20T13:25:58.130Z,15.80
2017-09-20T13:28:25.907Z,16.00
2017-09-20T13:30:53.622Z,16.60
2017-09-20T13:33:21.321Z,16.90
2017-09-20T13:35:49.365Z,17.10
2017-09-20T13:38:17.371Z,17.10
2017-09-20T13:40:45.315Z,17.30
2017-09-20T13:43:13.161Z,17.30
2017-09-20T13:45:40.798Z,17.40
2017-09-20T13:48:08.667Z,17.50
2017-09-20T13:50:36.390Z,17.40
2017-09-20T13:53:04.051Z,17.20
2017-09-20T13:55:32.943Z,16.80
2017-09-20T13:58:11.061Z,16.70
2017-09-20T14:00:38.754Z,16.70
2017-09-20T14:03:07.327Z,16.70
2017-09-20T14:05:35.124Z,16.60
2017-09-20T14:08:02.802Z,16.60
2017-09-20T14:10:30.479Z,16.40
2017-09-20T14:12:58.114Z,16.30
2017-09-20T14:15:25.714Z,16.00
2017-09-20T14:17:53.451Z,15.90
2017-09-20T14:20:21.089Z,16.00
2017-09-20T14:22:48.715Z,16.00
2017-09-20T14:25:17.495Z,15.90
2017-09-20T14:27:45.134Z,16.00
2017-09-20T14:30:12.983Z,16.00
2017-09-20T14:32:40.683Z,15.90
2017-09-20T14:35:08.358Z,15.90
2017-09-20T14:37:36.021Z,15.70
2017-09-20T14:40:04.939Z,15.60
2017-09-20T14:42:36.660Z,15.50
2017-09-20T14:45:04.840Z,15.50
2017-09-20T14:47:32.513Z,15.30
2017-09-20T14:50:00.233Z,15.10
2017-09-20T14:52:27.899Z,15.20
2017-09-20T14:54:55.535Z,15.20
2017-09-20T14:57:23.935Z,15.10
2017-09-20T14:59:51.594Z,15.10
2017-09-20T15:02:19.205Z,14.80
2017-09-20T15:04:46.808Z,14.60
2017-09-20T15:07:14.580Z,14.30
2017-09-20T15:09:42.221Z,14.10
2017-09-20T15:12:09.862Z,13.90
2017-09-20T15:14:37.651Z,13.70
2017-09-20T15:17:05.327Z,13.60
2017-09-20T15:19:32.988Z,13.60
2017-09-20T15:22:00.632Z,13.60
2017-09-20T15:24:28.637Z,13.60
2017-09-20T15:26:56.255Z,13.60
2017-09-20T15:29:23.866Z,13.60
2017-09-20T15:31:54.737Z,13.50
2017-09-20T15:34:22.339Z,13.50
2017-09-20T15:36:53.007Z,13.30
2017-09-20T15:39:20.654Z,13.30
2017-09-20T15:41:48.290Z,13.30
2017-09-20T15:44:15.941Z,13.20
2017-09-20T15:46:43.699Z,13.20
2017-09-20T15:49:11.405Z,13.20
2017-09-20T15:51:39.816Z,13.20
2017-09-20T15:54:07.455Z,13.10
2017-09-20T15:56:35.142Z,13.20
2017-09-20T15:59:02.856Z,13.10
2017-09-20T16:01:30.518Z,13.10
2017-09-20T16:03:58.166Z,13.10
2017-09-20T16:06:29.908Z,13.00
2017-09-20T16:08:58.355Z,12.90
2017-09-20T16:11:25.996Z,12.90
2017-09-20T16:13:53.673Z,12.80
2017-09-20T16:16:21.344Z,12.70
2017-09-20T16:18:48.942Z,12.60
2017-09-20T16:21:17.366Z,12.50
2017-09-20T16:23:45.011Z,12.40
2017-09-20T16:26:12.638Z,12.30
2017-09-20T16:28:40.260Z,12.20
2017-09-20T16:31:07.925Z,12.10
2017-09-20T16:33:35.559Z,12.10
2017-09-20T16:36:03.800Z,12.00
2017-09-20T16:38:31.454Z,11.90
2017-09-20T16:40:59.084Z,11.80
2017-09-20T16:43:26.693Z,11.80
2017-09-20T16:45:54.326Z,11.60
2017-09-20T16:48:21.978Z,11.60
2017-09-20T16:50:49.715Z,11.50
2017-09-20T16:53:17.515Z,11.30
2017-09-20T16:55:45.154Z,11.20
2017-09-20T16:58:12.838Z,11.00
2017-09-20T17:00:40.581Z,10.90
2017-09-20T17:03:08.241Z,10.80
2017-09-20T17:05:35.881Z,10.70
2017-09-20T17:08:03.557Z,10.70
2017-09-20T17:10:31.297Z,10.60
2017-09-20T17:12:58.938Z,10.50
2017-09-20T17:15:26.541Z,10.40
2017-09-20T17:17:54.164Z,10.40
2017-09-20T17:20:21.867Z,10.40
2017-09-20T17:22:49.489Z,10.40
2017-09-20T17:25:17.197Z,10.40
2017-09-20T17:27:45.205Z,10.40
2017-09-20T17:30:14.729Z,10.30
2017-09-20T17:32:42.449Z,10.30
2017-09-20T17:35:10.930Z,10.30
2017-09-20T17:37:38.736Z,10.40
2017-09-20T17:40:06.554Z,10.40
2017-09-20T17:42:34.358Z,10.40
2017-09-20T17:45:02.129Z,10.40
2017-09-20T17:47:29.988Z,10.50
2017-09-20T17:49:59.825Z,10.40
2017-09-20T17:52:27.668Z,10.40
2017-09-20T17:54:55.402Z,10.40
2017-09-20T17:57:23.460Z,10.30
2017-09-20T17:59:51.142Z,10.30
2017-09-20T18:02:20.347Z,10.20
2017-09-20T18:04:48.546Z,10.10
2017-09-20T18:07:16.777Z,10.00
2017-09-20T18:09:44.473Z,9.90
2017-09-20T18:12:12.060Z,9.80
2017-09-20T18:14:39.709Z,9.80
2017-09-20T18:17:07.346Z,9.70
2017-09-20T18:19:35.028Z,9.60
2017-09-20T18:22:02.667Z,9.60
2017-09-20T18:24:30.616Z,9.60
2017-09-20T18:26:58.318Z,9.60
2017-09-20T18:29:26.301Z,9.50
2017-09-20T18:31:53.942Z,9.40
2017-09-20T18:34:21.564Z,9.30
2017-09-20T18:36:50.089Z,9.20
2017-09-20T18:39:18.646Z,9.10
2017-09-20T18:41:46.319Z,9.10
2017-09-20T18:44:14.031Z,9.10
2017-09-20T18:46:41.675Z,9.10
2017-09-20T18:49:09.302Z,9.00
2017-09-20T18:51:36.974Z,9.00
2017-09-20T18:54:04.619Z,8.90
2017-09-20T18:56:32.257Z,8.90
2017-09-20T18:58:59.958Z,8.90
2017-09-20T19:01:27.569Z,8.80
2017-09-20T19:03:55.165Z,8.80
2017-09-20T19:06:22.800Z,8.70
2017-09-20T19:08:50.405Z,8.70
2017-09-20T19:11:18.651Z,8.70
2017-09-20T19:13:46.236Z,8.60
2017-09-20T19:16:14.810Z,8.60
2017-09-20T19:18:42.592Z,8.60
2017-09-20T19:21:10.188Z,8.60
2017-09-20T19:23:37.896Z,8.60
2017-09-20T19:26:05.577Z,8.70
2017-09-20T19:28:33.232Z,8.70
2017-09-20T19:31:01.751Z,8.70
2017-09-20T19:33:29.336Z,8.70
2017-09-20T19:35:56.965Z,8.70
2017-09-20T19:38:24.568Z,8.70
2017-09-20T19:40:52.186Z,8.80
2017-09-20T19:43:19.872Z,8.80
2017-09-20T19:45:47.508Z,8.80
2017-09-20T19:48:15.225Z,8.90
2017-09-20T19:50:42.856Z,8.90
2017-09-20T19:53:10.503Z,8.90
2017-09-20T19:55:38.128Z,8.90
2017-09-20T19:58:05.741Z,8.90
2017-09-20T20:00:34.231Z,8.90
2017-09-20T20:03:01.933Z,8.90
2017-09-20T20:05:29.531Z,8.90
2017-09-20T20:07:57.168Z,8.80
2017-09-20T20:10:24.779Z,8.80
2017-09-20T20:12:52.378Z,8.70
2017-09-20T20:15:19.963Z,8.70
2017-09-20T20:17:47.696Z,8.70
2017-09-20T20:20:15.388Z,8.60
2017-09-20T20:22:43.100Z,8.60
2017-09-20T20:25:10.764Z,8.60
2017-09-20T20:27:38.457Z,8.50
2017-09-20T20:30:06.119Z,8.50
2017-09-20T20:32:33.789Z,8.50
2017-09-20T20:35:01.431Z,8.50
2017-09-20T20:37:29.016Z,8.60
2017-09-20T20:39:56.631Z,8.70
2017-09-20T20:42:24.333Z,8.80
2017-09-20T20:44:51.917Z,8.80
2017-09-20T20:47:19.561Z,8.90
2017-09-20T20:49:47.215Z,9.00
2017-09-20T20:52:14.858Z,9.00
2017-09-20T20:54:42.477Z,9.10
2017-09-20T20:57:10.091Z,9.20
2017-09-20T20:59:38.168Z,9.20
2017-09-20T21:02:05.805Z,9.30
2017-09-20T21:04:34.332Z,9.30
2017-09-20T21:07:01.969Z,9.20
2017-09-20T21:09:29.585Z,9.20
2017-09-20T21:11:57.208Z,9.20
2017-09-20T21:14:24.845Z,9.20
2017-09-20T21:16:52.459Z,9.10
2017-09-20T21:19:20.814Z,8.90
2017-09-20T21:21:48.544Z,8.90
2017-09-20T21:24:16.126Z,8.90
2017-09-20T21:26:43.716Z,8.80
2017-09-20T21:29:17.371Z,8.80
2017-09-20T21:31:44.956Z,8.70
2017-09-20T21:34:12.691Z,8.70
2017-09-20T21:36:40.263Z,8.70
2017-09-20T21:39:07.936Z,8.60
2017-09-20T21:41:35.527Z,8.60
2017-09-20T21:44:03.122Z,8.60
2017-09-20T21:46:30.758Z,8.60
2017-09-20T21:48:59.206Z,8.60
2017-09-20T21:51:27.003Z,8.60
2017-09-20T21:53:55.411Z,8.40
2017-09-20T21:56:23.101Z,8.40
2017-09-20T21:58:50.718Z,8.30
2017-09-20T22:01:18.983Z,8.30
2017-09-20T22:03:47.359Z,8.20
2017-09-20T22:06:15.777Z,8.10
2017-09-20T22:08:43.370Z,8.10
2017-09-20T22:11:11.573Z,8.10
2017-09-20T22:13:39.990Z,8.10
2017-09-20T22:16:19.332Z,8.10
2017-09-20T22:18:59.009Z,8.10
2017-09-20T22:21:38.592Z,8.10
2017-09-20T22:24:18.067Z,8.10
2017-09-20T22:26:46.051Z,8.00
2017-09-20T22:29:13.684Z,8.00
2017-09-20T22:31:41.286Z,8.00
2017-09-20T22:34:08.911Z,7.90
2017-09-20T22:36:36.641Z,7.80
2017-09-20T22:39:04.344Z,7.70
2017-09-20T22:41:31.969Z,7.70
2017-09-20T22:43:59.594Z,7.70
2017-09-20T22:46:27.245Z,7.70
2017-09-20T22:48:54.926Z,7.70
2017-09-20T22:51:22.560Z,7.60
2017-09-20T22:53:50.222Z,7.60
2017-09-20T22:56:17.846Z,7.50
2017-09-20T22:58:45.483Z,7.50
2017-09-20T23:01:13.841Z,7.50
2017-09-20T23:03:41.441Z,7.50
2017-09-20T23:06:09.074Z,7.50
2017-09-20T23:08:36.665Z,7.60
2017-09-20T23:11:04.334Z,7.60
2017-09-20T23:13:31.961Z,7.60
2017-09-20T23:15:59.583Z,7.70
2017-09-20T23:18:27.257Z,7.60
2017-09-20T23:20:54.894Z,7.60
2017-09-20T23:23:22.554Z,7.50
2017-09-20T23:25:50.138Z,7.50
2017-09-20T23:28:17.784Z,7.40
2017-09-20T23:30:45.384Z,7.30
2017-09-20T23:33:13.076Z,7.30
2017-09-20T23:35:40.700Z,7.20
2017-09-20T23:38:08.320Z,7.10
2017-09-20T23:40:36.019Z,7.10
2017-09-20T23:43:03.672Z,7.10
2017-09-20T23:45:31.304Z,7.00
2017-09-20T23:47:58.899Z,6.90
2017-09-20T23:50:26.485Z,6.80
2017-09-20T23:52:54.130Z,6.80
2017-09-20T23:55:21.763Z,6.70
2017-09-20T23:57:49.382Z,6.70
